Degelis, Canada
Current Conditions -  °F | °C
As of 6:16 AM on Thursday 18 Dec 2014 (Local Time) from KFVE Reporting Station
Light Snow Light Snow  
Wind Chill: 13°   Ceiling: 600
Heat Index: 25°   Visibility: 2.5mi
Dew Point: 23°   Wind: 15mph
Humidity: 92%   Direction: 350°N
Pressure: 29.61"   Gusts: NA
Location:  47.55°N, 68.64°W
Report Text: KFVE 181116Z AUTO 35013KT 2 1/2SM -SN BR BKN006 OVC024 M04/M05 A2961 RMK AO2 P0000 T10391050
Loading
Personal Weather Stations






























Interactive Weather Map New forecast layout! Learn more

10-Day Weather Forecast

Advertisements
Track Severe Weather on mobile